Time;durP1;ratioP1;P1;durP2;ratioP2;P2;SDS_P1;SDS_P2;PMS_P1;PMS_P2;Temp;Humidity;BMP_temperature;BMP_pressure;BME280_temperature;BME280_humidity;BME280_pressure;Samples;Min_cycle;Max_cycle;Signal;HPM_P1;HPM_P2
2023/08/11 00:00:32;;;;;;;5.75;1.40;;;;;;;26.56;44.01;99077.19;2079055;28;20045;-51
2023/08/11 00:01:33;;;;;;;5.22;1.95;;;;;;;26.52;43.65;99083.13;2075518;28;20639;-51
2023/08/11 00:02:33;;;;;;;5.07;3.05;;;;;;;26.55;43.56;99086.41;2081544;28;20120;-55
2023/08/11 00:03:35;;;;;;;3.75;1.50;;;;;;;26.55;43.42;99080.97;2079605;28;20392;-53
2023/08/11 00:04:36;;;;;;;2.75;1.30;;;;;;;26.57;43.71;99081.53;2080127;28;20491;-51
2023/08/11 00:05:38;;;;;;;3.08;1.63;;;;;;;26.54;43.78;99084.75;2080372;28;20053;-50
2023/08/11 00:06:39;;;;;;;5.05;2.42;;;;;;;26.55;43.41;99083.69;2077127;28;20918;-49
2023/08/11 00:07:41;;;;;;;3.78;1.55;;;;;;;26.54;43.77;99085.56;2077267;28;20060;-47
2023/08/11 00:08:42;;;;;;;3.20;1.92;;;;;;;26.56;43.97;99088.06;2079806;28;20128;-50
2023/08/11 00:09:45;;;;;;;3.17;1.30;;;;;;;26.55;43.67;99081.81;2080761;28;20202;-48
2023/08/11 00:10:46;;;;;;;2.80;1.30;;;;;;;26.52;43.98;99085.84;2079004;28;20049;-49
2023/08/11 00:11:47;;;;;;;3.40;2.25;;;;;;;26.51;44.21;99092.34;2077411;28;20127;-50
2023/08/11 00:12:48;;;;;;;6.65;1.90;;;;;;;26.51;44.09;99086.88;2078148;28;20135;-49
2023/08/11 00:13:50;;;;;;;3.40;1.60;;;;;;;26.51;44.35;99081.44;2078308;28;20531;-50
2023/08/11 00:14:52;;;;;;;4.90;1.33;;;;;;;26.51;44.53;99084.16;2079500;28;20075;-50
2023/08/11 00:15:55;;;;;;;2.25;1.40;;;;;;;26.52;44.14;99088.56;2079478;28;20049;-50
2023/08/11 00:16:56;;;;;;;3.78;1.25;;;;;;;26.54;44.38;99090.19;2077986;28;20076;-48
2023/08/11 00:18:00;;;;;;;2.13;1.20;;;;;;;26.53;44.14;99086.66;2079767;28;20049;-50
2023/08/11 00:19:02;;;;;;;3.40;1.92;;;;;;;26.51;44.21;99081.44;2077174;28;20050;-47
2023/08/11 00:20:04;;;;;;;2.70;1.33;;;;;;;26.51;44.32;99092.34;2075657;28;20052;-50
2023/08/11 00:21:06;;;;;;;5.18;1.73;;;;;;;26.55;44.12;99086.41;2082553;28;20053;-51
2023/08/11 00:22:07;;;;;;;2.65;1.48;;;;;;;26.52;44.39;99085.84;2086404;28;20087;-48
2023/08/11 00:23:09;;;;;;;2.88;1.27;;;;;;;26.52;44.37;99088.56;2086510;28;20045;-49
2023/08/11 00:24:11;;;;;;;4.57;1.90;;;;;;;26.50;44.32;99085.25;2087637;28;20537;-50
2023/08/11 00:25:14;;;;;;;2.40;1.67;;;;;;;26.52;44.61;99074.97;2087592;28;20160;-50
2023/08/11 00:26:15;;;;;;;3.53;1.70;;;;;;;26.52;44.32;99077.69;2086050;28;20056;-48
2023/08/11 00:27:16;;;;;;;2.65;1.45;;;;;;;26.54;44.61;99082.03;2089972;28;20053;-48
2023/08/11 00:28:17;;;;;;;2.20;1.95;;;;;;;26.54;44.79;99071.16;2084721;28;20044;-50
2023/08/11 00:29:18;;;;;;;2.85;1.20;;;;;;;26.55;44.95;99070.06;2086053;28;20691;-51
2023/08/11 00:30:20;;;;;;;2.22;1.23;;;;;;;26.54;44.92;99077.41;2084753;28;20052;-48
2023/08/11 00:31:21;;;;;;;2.85;0.85;;;;;;;26.57;44.71;99076.91;2087161;28;20396;-50
2023/08/11 00:32:23;;;;;;;2.80;1.45;;;;;;;26.56;44.72;99072.56;2081074;28;20054;-50
2023/08/11 00:33:24;;;;;;;2.28;1.48;;;;;;;26.58;44.87;99075.03;2086051;28;20110;-50
2023/08/11 00:34:26;;;;;;;4.90;1.40;;;;;;;26.57;44.89;99074.19;2085108;28;20442;-47
2023/08/11 00:35:26;;;;;;;7.45;2.00;;;;;;;26.59;44.71;99071.25;2084368;28;20366;-49
2023/08/11 00:36:28;;;;;;;2.08;1.30;;;;;;;26.58;44.87;99072.31;2085911;28;20049;-50
2023/08/11 00:37:29;;;;;;;3.40;1.63;;;;;;;26.58;44.95;99080.47;2083357;28;20063;-48
2023/08/11 00:38:37;;;;;;;3.08;1.70;;;;;;;26.59;44.73;99079.41;2083491;28;20075;-50
2023/08/11 00:39:38;;;;;;;1.77;0.82;;;;;;;26.56;45.14;99071.75;2089008;28;20102;-48
2023/08/11 00:40:42;;;;;;;2.67;1.15;;;;;;;26.58;45.24;99072.31;2087493;28;20044;-50
2023/08/11 00:41:42;;;;;;;2.17;1.50;;;;;;;26.59;45.15;99071.25;2086815;28;20384;-52
2023/08/11 00:42:44;;;;;;;3.22;1.30;;;;;;;26.59;44.83;99072.06;2086336;28;20141;-50
2023/08/11 00:43:45;;;;;;;1.40;1.10;;;;;;;26.59;44.91;99076.69;2086637;28;20170;-49
2023/08/11 00:44:47;;;;;;;3.47;1.77;;;;;;;26.60;44.85;99067.44;2083831;28;20094;-48
2023/08/11 00:45:49;;;;;;;1.70;1.20;;;;;;;26.61;45.01;99074.56;2084673;28;20060;-49
2023/08/11 00:46:51;;;;;;;1.65;1.27;;;;;;;26.60;44.98;99068.28;2084852;28;20045;-49
2023/08/11 00:47:52;;;;;;;1.63;1.20;;;;;;;26.60;44.91;99068.28;2087098;28;20052;-49
2023/08/11 00:48:55;;;;;;;2.53;1.50;;;;;;;26.61;44.98;99071.84;2084088;28;20923;-48
2023/08/11 00:49:56;;;;;;;1.92;1.15;;;;;;;26.63;45.13;99069.69;2086317;28;20052;-50
2023/08/11 00:50:58;;;;;;;2.83;2.15;;;;;;;26.63;45.09;99065.06;2085263;28;20049;-49
2023/08/11 00:52:00;;;;;;;4.25;1.45;;;;;;;26.61;45.36;99063.69;2083995;28;20048;-47
2023/08/11 00:53:02;;;;;;;5.78;1.63;;;;;;;26.62;45.30;99065.31;2084696;28;20534;-47
2023/08/11 00:54:06;;;;;;;2.83;1.35;;;;;;;26.62;45.08;99065.31;2085372;28;20565;-49
2023/08/11 00:55:09;;;;;;;3.30;1.85;;;;;;;26.62;45.30;99066.13;2083974;28;20416;-48
2023/08/11 00:56:13;;;;;;;4.90;1.00;;;;;;;26.62;45.13;99059.88;2082711;28;20496;-47
2023/08/11 00:57:15;;;;;;;1.27;1.00;;;;;;;26.61;45.04;99056.34;2081403;28;20231;-50
2023/08/11 00:58:16;;;;;;;2.38;1.45;;;;;;;26.62;45.13;99057.16;2085578;28;20175;-49
2023/08/11 00:59:20;;;;;;;2.72;1.00;;;;;;;26.63;44.95;99050.63;2079202;28;20254;-50
2023/08/11 01:00:21;;;;;;;5.05;1.48;;;;;;;26.63;45.13;99053.34;2084968;28;20045;-48
2023/08/11 01:01:23;;;;;;;3.15;1.08;;;;;;;26.64;45.47;99049.56;2086163;28;20564;-49
2023/08/11 01:02:25;;;;;;;4.25;1.52;;;;;;;26.65;45.21;99051.22;2079930;28;20603;-50
2023/08/11 01:03:27;;;;;;;1.98;1.25;;;;;;;26.63;45.43;99047.91;2081515;28;20040;-49
2023/08/11 01:04:28;;;;;;;4.30;1.33;;;;;;;26.65;45.13;99051.22;2089926;28;20048;-47
2023/08/11 01:05:35;;;;;;;1.88;0.82;;;;;;;26.67;45.26;99054.53;2077486;28;20899;-51
2023/08/11 01:06:41;;;;;;;1.73;1.30;;;;;;;26.64;45.39;99057.75;2078898;28;20040;-48
2023/08/11 01:07:53;;;;;;;1.35;1.15;;;;;;;26.63;45.31;99051.44;2085373;28;20135;-49
2023/08/11 01:09:06;;;;;;;1.77;0.80;;;;;;;26.62;45.27;99059.88;2078896;28;20046;-52
2023/08/11 01:10:17;;;;;;;3.10;1.48;;;;;;;26.63;45.14;99056.88;2079334;28;20246;-51
2023/08/11 01:11:26;;;;;;;1.60;0.85;;;;;;;26.64;45.48;99060.47;2079770;28;20136;-48
2023/08/11 01:12:33;;;;;;;2.72;1.80;;;;;;;26.65;45.34;99059.38;2070231;28;20750;-49
2023/08/11 01:13:39;;;;;;;1.52;1.08;;;;;;;26.64;45.35;99057.75;2076234;28;20053;-49
2023/08/11 01:14:50;;;;;;;1.27;1.17;;;;;;;26.65;45.40;99059.38;2080030;28;20057;-50
2023/08/11 01:15:56;;;;;;;7.68;1.58;;;;;;;26.63;45.07;99056.06;2079575;28;20518;-48
2023/08/11 01:17:01;;;;;;;3.38;1.55;;;;;;;26.64;45.21;99057.75;2078591;28;20318;-48
2023/08/11 01:18:03;;;;;;;2.45;1.55;;;;;;;26.65;45.45;99056.66;2078796;28;20076;-48
2023/08/11 01:19:07;;;;;;;2.40;1.50;;;;;;;26.66;45.30;99058.28;2075933;28;20448;-51
2023/08/11 01:20:11;;;;;;;3.97;1.45;;;;;;;26.66;45.14;99061.88;2078678;28;20071;-49
2023/08/11 01:21:15;;;;;;;2.92;1.30;;;;;;;26.67;45.34;99057.25;2079513;28;20451;-51
2023/08/11 01:22:19;;;;;;;1.83;1.10;;;;;;;26.67;45.23;99063.50;2077068;28;20835;-48
2023/08/11 01:23:23;;;;;;;2.13;1.13;;;;;;;26.66;45.16;99055.56;2079664;28;20099;-49
2023/08/11 01:24:25;;;;;;;6.43;1.50;;;;;;;26.67;45.30;99058.06;2078465;28;20053;-49
2023/08/11 01:25:28;;;;;;;1.83;1.17;;;;;;;26.67;45.59;99060.78;2076358;28;20708;-49
2023/08/11 01:26:29;;;;;;;2.17;1.33;;;;;;;26.67;45.41;99062.69;2079292;28;20182;-51
2023/08/11 01:27:31;;;;;;;2.85;1.40;;;;;;;26.68;45.17;99058.88;2080297;28;20059;-50
2023/08/11 01:28:33;;;;;;;2.97;1.40;;;;;;;26.68;45.44;99056.16;2078488;28;20099;-50
2023/08/11 01:29:35;;;;;;;3.95;1.20;;;;;;;26.68;45.67;99054.25;2079509;28;20051;-50
2023/08/11 01:30:36;;;;;;;2.22;1.25;;;;;;;26.68;45.47;99054.25;2079038;28;20140;-48
2023/08/11 01:31:38;;;;;;;1.83;1.25;;;;;;;26.70;45.14;99064.91;2077848;28;20045;-50
2023/08/11 01:32:39;;;;;;;2.45;1.35;;;;;;;26.69;45.40;99057.81;2080994;28;20529;-47
2023/08/11 01:33:41;;;;;;;3.58;1.38;;;;;;;26.68;45.58;99051.53;2076135;28;20136;-48
2023/08/11 01:34:41;;;;;;;3.15;1.63;;;;;;;26.68;45.39;99056.16;2076242;28;20270;-49
2023/08/11 01:35:44;;;;;;;1.10;0.90;;;;;;;26.69;45.68;99055.94;2078517;28;20055;-48
2023/08/11 01:36:44;;;;;;;1.45;1.20;;;;;;;26.70;45.46;99054.03;2078001;28;20098;-47
2023/08/11 01:37:47;;;;;;;1.67;1.38;;;;;;;26.69;45.22;99053.22;2077328;28;20540;-48
2023/08/11 01:38:49;;;;;;;2.45;1.30;;;;;;;26.69;45.23;99057.81;2076716;28;20094;-49
2023/08/11 01:39:51;;;;;;;1.33;1.08;;;;;;;26.69;45.25;99050.50;2078560;28;20049;-49
2023/08/11 01:40:52;;;;;;;3.60;1.10;;;;;;;26.70;45.63;99054.03;2076615;28;20080;-49
2023/08/11 01:41:54;;;;;;;2.10;1.38;;;;;;;26.70;45.74;99054.03;2079012;28;20310;-48
2023/08/11 01:42:58;;;;;;;2.42;1.50;;;;;;;26.69;45.36;99055.94;2079852;28;20048;-48
2023/08/11 01:44:00;;;;;;;3.78;1.85;;;;;;;26.68;45.48;99046.09;2073334;28;20499;-49
2023/08/11 01:45:01;;;;;;;2.85;1.40;;;;;;;26.70;45.74;99056.75;2077330;28;20075;-48
2023/08/11 01:46:03;;;;;;;2.90;1.23;;;;;;;26.70;45.71;99054.03;2082292;28;20044;-49
2023/08/11 01:47:06;;;;;;;2.15;1.67;;;;;;;26.70;45.40;99051.31;2085733;28;20487;-50
2023/08/11 01:48:11;;;;;;;2.40;1.33;;;;;;;26.70;45.49;99056.75;2087673;28;20045;-49
2023/08/11 01:49:12;;;;;;;1.92;1.52;;;;;;;26.69;45.53;99053.22;2085847;28;20057;-49
2023/08/11 01:50:16;;;;;;;4.13;1.30;;;;;;;26.68;45.60;99050.72;2083898;28;20434;-50
2023/08/11 01:51:17;;;;;;;2.25;1.13;;;;;;;26.70;45.39;99051.31;2085135;28;20163;-50
2023/08/11 01:52:20;;;;;;;3.92;1.58;;;;;;;26.70;45.87;99052.13;2085684;28;20052;-49
2023/08/11 01:53:21;;;;;;;1.75;1.02;;;;;;;26.69;45.47;99050.50;2084757;28;20061;-48
2023/08/11 01:54:24;;;;;;;2.83;1.20;;;;;;;26.70;45.87;99054.03;2086115;28;20232;-48
2023/08/11 01:55:26;;;;;;;2.13;1.42;;;;;;;26.70;45.88;99051.31;2083480;28;20072;-48
2023/08/11 01:56:29;;;;;;;1.75;1.10;;;;;;;26.69;45.86;99061.38;2086022;28;20063;-48
2023/08/11 01:57:29;;;;;;;2.00;1.58;;;;;;;26.70;45.46;99059.47;2085317;28;20153;-49
2023/08/11 01:58:32;;;;;;;2.00;1.10;;;;;;;26.70;45.61;99051.31;2087407;28;20507;-48
2023/08/11 01:59:33;;;;;;;2.53;1.30;;;;;;;26.70;45.94;99049.41;2086574;28;20056;-49
2023/08/11 02:00:34;;;;;;;1.73;1.17;;;;;;;26.71;45.71;99052.94;2087641;28;20052;-48
2023/08/11 02:01:35;;;;;;;5.50;1.60;;;;;;;26.70;45.90;99048.59;2086294;28;20048;-49
2023/08/11 02:02:37;;;;;;;1.65;1.25;;;;;;;26.69;45.95;99045.03;2086200;28;20067;-49
2023/08/11 02:03:38;;;;;;;3.25;1.77;;;;;;;26.70;45.89;99051.31;2087150;28;20052;-50
2023/08/11 02:04:40;;;;;;;2.83;1.08;;;;;;;26.70;45.76;99048.59;2083689;28;20076;-48
2023/08/11 02:05:41;;;;;;;1.52;1.08;;;;;;;26.71;45.52;99052.94;2086021;28;20067;-48
2023/08/11 02:06:43;;;;;;;1.10;1.00;;;;;;;26.70;45.68;99051.31;2086975;28;20057;-48
2023/08/11 02:07:45;;;;;;;1.65;1.27;;;;;;;26.72;45.78;99044.56;2086616;28;20045;-48
2023/08/11 02:08:47;;;;;;;3.08;1.55;;;;;;;26.71;45.78;99048.31;2083443;28;20053;-47
2023/08/11 02:09:50;;;;;;;2.13;1.33;;;;;;;26.71;45.93;99048.31;2077595;28;20048;-49
2023/08/11 02:10:52;;;;;;;2.13;1.35;;;;;;;26.71;46.04;99047.50;2075183;28;20370;-48
2023/08/11 02:11:53;;;;;;;1.90;1.30;;;;;;;26.71;46.01;99048.31;2077988;28;20471;-49
2023/08/11 02:12:55;;;;;;;1.90;1.30;;;;;;;26.71;45.62;99048.31;2075959;28;20049;-48
2023/08/11 02:13:56;;;;;;;2.08;1.25;;;;;;;26.69;45.74;99045.03;2084635;28;20400;-49
2023/08/11 02:14:58;;;;;;;2.42;1.23;;;;;;;26.71;46.04;99050.22;2087184;28;20220;-49
2023/08/11 02:15:58;;;;;;;1.50;1.10;;;;;;;26.71;46.15;99047.50;2086149;28;20055;-51
2023/08/11 02:17:00;;;;;;;1.35;0.80;;;;;;;26.71;46.16;99050.22;2087702;28;20127;-49
2023/08/11 02:18:01;;;;;;;3.35;1.30;;;;;;;26.69;46.18;99050.50;2086047;28;20052;-49
2023/08/11 02:19:04;;;;;;;2.05;1.25;;;;;;;26.70;46.18;99052.13;2084442;28;20049;-50
2023/08/11 02:20:18;;;;;;;2.55;1.38;;;;;;;26.71;45.71;99048.31;2087035;28;20049;-46
2023/08/11 02:21:21;;;;;;;1.52;1.10;;;;;;;26.68;45.82;99048.81;2083974;28;20131;-49
2023/08/11 02:22:21;;;;;;;3.25;2.22;;;;;;;26.70;46.11;99049.41;2086870;28;20502;-48
2023/08/11 02:23:23;;;;;;;3.40;0.85;;;;;;;26.71;46.21;99053.75;2085159;28;20094;-48
2023/08/11 02:24:24;;;;;;;3.08;1.00;;;;;;;26.71;46.07;99050.22;2085927;28;20045;-49
2023/08/11 02:25:27;;;;;;;2.20;1.17;;;;;;;26.73;46.22;99050.81;2086602;28;21808;-47
2023/08/11 02:26:28;;;;;;;2.08;1.13;;;;;;;26.70;45.89;99051.31;2082014;28;20083;-49
2023/08/11 02:27:30;;;;;;;1.63;1.48;;;;;;;26.71;45.77;99048.31;2087076;28;20510;-50
2023/08/11 02:28:31;;;;;;;2.35;1.02;;;;;;;26.72;45.88;99050.00;2084454;28;20048;-48
2023/08/11 02:29:33;;;;;;;1.75;1.30;;;;;;;26.70;45.98;99043.97;2086797;28;20103;-47
2023/08/11 02:30:34;;;;;;;1.23;1.13;;;;;;;26.70;46.17;99045.88;2086666;28;20293;-51
2023/08/11 02:31:35;;;;;;;1.48;1.25;;;;;;;26.70;46.27;99041.25;2088295;28;20287;-49
2023/08/11 02:32:37;;;;;;;3.85;1.25;;;;;;;26.70;45.95;99040.41;2085625;28;20052;-49
2023/08/11 02:33:39;;;;;;;2.70;1.58;;;;;;;26.73;46.30;99039.94;2086791;28;20052;-49
2023/08/11 02:34:41;;;;;;;1.77;1.15;;;;;;;26.72;46.07;99046.44;2084426;28;20059;-48
2023/08/11 02:35:43;;;;;;;1.75;0.80;;;;;;;26.72;46.23;99043.72;2084658;28;20052;-48
2023/08/11 02:36:44;;;;;;;2.92;1.60;;;;;;;26.72;46.23;99049.16;2084217;28;20056;-50
2023/08/11 02:37:46;;;;;;;3.58;1.75;;;;;;;26.71;46.19;99042.88;2085678;28;20055;-49
2023/08/11 02:38:47;;;;;;;1.13;1.00;;;;;;;26.72;46.27;99038.28;2082879;28;20262;-48
2023/08/11 02:39:49;;;;;;;1.90;1.10;;;;;;;26.71;46.30;99042.88;2085388;28;20121;-49
2023/08/11 02:40:51;;;;;;;1.90;1.25;;;;;;;26.72;45.90;99046.44;2085905;28;20224;-49
2023/08/11 02:41:53;;;;;;;4.07;1.55;;;;;;;26.71;46.33;99036.63;2088422;28;20106;-49
2023/08/11 02:42:56;;;;;;;2.47;1.42;;;;;;;26.72;46.10;99035.56;2081487;28;20045;-48
2023/08/11 02:43:58;;;;;;;1.70;1.38;;;;;;;26.72;46.12;99035.56;2087435;28;20931;-49
2023/08/11 02:44:59;;;;;;;2.92;0.95;;;;;;;26.72;46.39;99044.56;2085272;28;20151;-49
2023/08/11 02:45:59;;;;;;;2.05;0.90;;;;;;;26.71;45.71;99042.88;2082171;28;20048;-48
2023/08/11 02:47:01;;;;;;;3.85;1.77;;;;;;;26.71;46.22;99028.47;2081491;28;20223;-48
2023/08/11 02:48:02;;;;;;;1.55;1.17;;;;;;;26.71;45.80;99034.72;2085589;28;20267;-48
2023/08/11 02:49:04;;;;;;;2.80;0.98;;;;;;;26.71;46.35;99034.72;2082592;28;20070;-50
2023/08/11 02:50:06;;;;;;;1.23;0.95;;;;;;;26.73;46.24;99031.75;2084708;28;20109;-49
2023/08/11 02:51:08;;;;;;;3.88;1.25;;;;;;;26.73;45.89;99034.47;2085956;28;20048;-49
2023/08/11 02:52:11;;;;;;;1.10;1.00;;;;;;;26.73;45.94;99029.03;2086317;28;20051;-49
2023/08/11 02:53:14;;;;;;;1.55;0.90;;;;;;;26.70;46.23;99030.34;2085841;28;20090;-51
2023/08/11 02:54:15;;;;;;;1.98;1.08;;;;;;;26.71;46.09;99042.88;2084562;28;20581;-50
2023/08/11 02:55:16;;;;;;;2.45;1.30;;;;;;;26.71;46.34;99031.19;2084728;28;20049;-51
2023/08/11 02:56:19;;;;;;;1.73;1.42;;;;;;;26.72;46.34;99027.41;2088402;28;20048;-48
2023/08/11 02:57:20;;;;;;;2.97;1.25;;;;;;;26.72;46.33;99035.56;2087769;28;20218;-49
2023/08/11 02:58:21;;;;;;;2.90;1.48;;;;;;;26.72;46.16;99035.56;2087464;28;20056;-49
2023/08/11 02:59:23;;;;;;;2.28;1.33;;;;;;;26.73;46.16;99032.59;2089951;28;20497;-50
2023/08/11 03:00:24;;;;;;;1.85;1.33;;;;;;;26.74;46.28;99036.13;2079394;28;20053;-52
2023/08/11 03:01:27;;;;;;;1.90;1.40;;;;;;;26.73;46.13;99037.19;2078696;28;20080;-50
2023/08/11 03:02:27;;;;;;;3.47;1.40;;;;;;;26.72;46.34;99035.56;2078208;28;20301;-50
2023/08/11 03:03:29;;;;;;;2.10;1.02;;;;;;;26.72;46.34;99039.09;2078240;28;20511;-50
2023/08/11 03:04:30;;;;;;;3.03;1.17;;;;;;;26.73;46.32;99034.47;2081250;28;20052;-49
2023/08/11 03:05:32;;;;;;;3.30;1.00;;;;;;;26.72;46.22;99039.09;2077892;28;20802;-48
2023/08/11 03:06:34;;;;;;;2.38;1.00;;;;;;;26.71;45.90;99034.72;2075984;28;21536;-51
2023/08/11 03:07:35;;;;;;;1.23;0.98;;;;;;;26.71;45.99;99033.91;2077969;28;20049;-49
2023/08/11 03:08:37;;;;;;;1.05;0.95;;;;;;;26.72;46.16;99035.56;2076597;28;20049;-50
2023/08/11 03:09:37;;;;;;;1.13;0.95;;;;;;;26.72;46.06;99033.66;2077760;28;20598;-50
2023/08/11 03:10:39;;;;;;;1.45;1.15;;;;;;;26.72;46.39;99033.66;2076517;28;20049;-48
2023/08/11 03:11:41;;;;;;;1.27;1.02;;;;;;;26.72;45.93;99035.56;2079087;28;20049;-50
2023/08/11 03:12:43;;;;;;;2.35;1.13;;;;;;;26.71;46.44;99031.19;2075369;28;25354;-50
2023/08/11 03:13:44;;;;;;;2.78;1.15;;;;;;;26.71;46.17;99031.19;2076425;28;20084;-49
2023/08/11 03:14:46;;;;;;;1.70;1.00;;;;;;;26.71;46.44;99036.63;2079885;28;20056;-49
2023/08/11 03:15:47;;;;;;;1.40;0.98;;;;;;;26.71;46.50;99033.91;2077916;28;20045;-49
2023/08/11 03:16:48;;;;;;;1.05;0.93;;;;;;;26.70;46.50;99030.34;2079370;28;20413;-50
2023/08/11 03:17:49;;;;;;;4.65;1.92;;;;;;;26.70;46.64;99029.53;2077057;28;20056;-49
2023/08/11 03:18:51;;;;;;;1.98;1.00;;;;;;;26.71;46.44;99036.63;2078997;28;20049;-49
2023/08/11 03:19:52;;;;;;;1.83;1.08;;;;;;;26.71;46.46;99033.91;2079957;28;20053;-49
2023/08/11 03:20:53;;;;;;;1.98;1.30;;;;;;;26.71;46.05;99031.19;2079277;28;20160;-51
2023/08/11 03:21:55;;;;;;;2.00;1.30;;;;;;;26.71;46.39;99031.19;2080617;28;20504;-50
2023/08/11 03:22:55;;;;;;;2.65;1.10;;;;;;;26.72;46.41;99043.72;2078324;28;20365;-49
2023/08/11 03:23:57;;;;;;;1.45;1.33;;;;;;;26.72;46.40;99043.72;2080233;28;20049;-49
2023/08/11 03:24:58;;;;;;;1.67;1.58;;;;;;;26.71;46.39;99034.72;2080471;28;20139;-50
2023/08/11 03:26:00;;;;;;;1.25;1.10;;;;;;;26.71;46.52;99045.59;2077653;28;20048;-51
2023/08/11 03:27:02;;;;;;;1.50;1.00;;;;;;;26.72;46.15;99038.28;2076714;28;20049;-49
2023/08/11 03:28:04;;;;;;;3.78;1.20;;;;;;;26.72;46.24;99039.09;2081915;28;20052;-48
2023/08/11 03:29:05;;;;;;;1.20;0.82;;;;;;;26.71;46.21;99047.50;2079388;28;20072;-49
2023/08/11 03:30:08;;;;;;;1.42;1.27;;;;;;;26.69;46.58;99044.19;2077304;28;20061;-50
2023/08/11 03:31:09;;;;;;;1.60;1.40;;;;;;;26.72;46.16;99047.28;2077956;28;20045;-49
2023/08/11 03:32:11;;;;;;;1.63;1.00;;;;;;;26.73;46.53;99053.53;2078501;28;20547;-48
2023/08/11 03:33:12;;;;;;;1.00;0.65;;;;;;;26.72;46.00;99051.88;2079449;28;20096;-48
2023/08/11 03:34:14;;;;;;;2.00;1.13;;;;;;;26.73;46.48;99053.53;2078821;28;20527;-50
2023/08/11 03:35:17;;;;;;;2.35;0.90;;;;;;;26.70;46.41;99046.69;2079579;28;20143;-48
2023/08/11 03:36:19;;;;;;;1.85;1.35;;;;;;;26.72;46.04;99058.16;2079749;28;20052;-50
2023/08/11 03:37:20;;;;;;;2.67;1.35;;;;;;;26.73;46.44;99053.53;2080489;28;20483;-50
2023/08/11 03:38:21;;;;;;;1.52;1.13;;;;;;;26.73;46.18;99061.69;2080139;28;20045;-49
2023/08/11 03:39:22;;;;;;;1.35;1.05;;;;;;;26.71;46.23;99056.47;2080380;28;20057;-52
2023/08/11 03:40:24;;;;;;;2.63;0.95;;;;;;;26.72;46.40;99055.44;2081494;28;20500;-49
2023/08/11 03:41:25;;;;;;;1.60;1.05;;;;;;;26.72;46.62;99055.44;2087566;28;20455;-47
2023/08/11 03:42:28;;;;;;;3.50;1.13;;;;;;;26.73;46.51;99056.25;2086812;28;20090;-50
2023/08/11 03:43:29;;;;;;;1.85;0.90;;;;;;;26.71;46.81;99052.94;2087074;28;20123;-48
2023/08/11 03:44:31;;;;;;;2.00;1.05;;;;;;;26.71;47.05;99059.19;2087327;28;20052;-48
2023/08/11 03:45:32;;;;;;;2.05;1.20;;;;;;;26.70;46.96;99054.84;2089048;28;20562;-49
2023/08/11 03:46:34;;;;;;;4.28;1.67;;;;;;;26.73;46.58;99064.41;2088111;28;20131;-47
2023/08/11 03:47:35;;;;;;;1.65;0.98;;;;;;;26.71;46.62;99061.94;2087796;28;20403;-49
2023/08/11 03:48:36;;;;;;;1.98;1.45;;;;;;;26.72;46.71;99066.31;2084637;28;20198;-48
2023/08/11 03:49:37;;;;;;;2.88;1.20;;;;;;;26.73;46.67;99064.41;2088738;28;20489;-49
2023/08/11 03:50:39;;;;;;;3.28;1.65;;;;;;;26.72;46.70;99063.59;2087146;28;20696;-49
2023/08/11 03:51:40;;;;;;;2.72;1.10;;;;;;;26.72;46.54;99060.88;2087592;28;20067;-47
2023/08/11 03:52:42;;;;;;;1.70;1.05;;;;;;;26.73;46.78;99056.25;2087007;28;20049;-49
2023/08/11 03:53:43;;;;;;;2.95;1.08;;;;;;;26.72;46.73;99063.59;2089101;28;20349;-48
2023/08/11 03:54:45;;;;;;;6.38;1.40;;;;;;;26.70;46.57;99062.19;2090327;28;20048;-48
2023/08/11 03:55:46;;;;;;;2.10;1.08;;;;;;;26.72;46.84;99060.06;2089113;28;20052;-49
2023/08/11 03:56:47;;;;;;;1.33;0.80;;;;;;;26.71;46.55;99064.66;2087691;28;20652;-49
2023/08/11 03:57:51;;;;;;;2.30;1.30;;;;;;;26.71;46.57;99053.75;2088020;28;20061;-48
2023/08/11 03:58:52;;;;;;;4.53;1.10;;;;;;;26.71;46.48;99052.94;2086090;28;20077;-48
2023/08/11 03:59:54;;;;;;;1.88;1.00;;;;;;;26.70;47.00;99056.75;2086062;28;20053;-50
2023/08/11 04:00:55;;;;;;;1.23;0.93;;;;;;;26.69;46.68;99050.50;2086088;28;20044;-49
2023/08/11 04:01:56;;;;;;;1.40;1.20;;;;;;;26.71;46.66;99052.94;2088124;28;20058;-51
2023/08/11 04:02:57;;;;;;;2.38;1.30;;;;;;;26.70;46.90;99057.56;2086418;28;20044;-48
2023/08/11 04:03:59;;;;;;;3.15;1.20;;;;;;;26.70;46.65;99062.19;2085638;28;20052;-49
2023/08/11 04:05:00;;;;;;;1.58;1.08;;;;;;;26.69;46.84;99052.34;2082835;28;20131;-47
2023/08/11 04:06:02;;;;;;;1.95;1.25;;;;;;;26.68;46.58;99062.41;2086784;28;20048;-48
2023/08/11 04:07:05;;;;;;;1.13;1.00;;;;;;;26.69;46.83;99064.09;2086211;28;20101;-48
2023/08/11 04:08:06;;;;;;;6.47;1.90;;;;;;;26.69;47.04;99064.09;2085257;28;20573;-48
2023/08/11 04:09:07;;;;;;;1.17;0.88;;;;;;;26.69;46.68;99060.53;2085945;28;20131;-48
2023/08/11 04:10:11;;;;;;;1.45;1.20;;;;;;;26.69;46.67;99061.38;2086146;28;20498;-47
2023/08/11 04:11:12;;;;;;;1.83;0.88;;;;;;;26.68;46.55;99065.16;2085573;28;20392;-47
2023/08/11 04:12:14;;;;;;;2.05;0.90;;;;;;;26.69;46.94;99063.25;2086813;28;20272;-47
2023/08/11 04:13:16;;;;;;;2.28;1.52;;;;;;;26.69;46.60;99063.25;2085354;28;20491;-49
2023/08/11 04:14:18;;;;;;;1.80;0.90;;;;;;;26.68;46.54;99067.88;2085981;28;20048;-48
2023/08/11 04:15:19;;;;;;;1.25;0.88;;;;;;;26.67;47.02;99062.69;2086012;28;20109;-48
2023/08/11 04:16:21;;;;;;;1.33;0.88;;;;;;;26.67;47.03;99063.50;2087345;28;20469;-46
2023/08/11 04:17:22;;;;;;;1.08;0.88;;;;;;;26.68;46.72;99069.75;2085073;28;20098;-48
2023/08/11 04:18:24;;;;;;;0.93;0.88;;;;;;;26.69;46.88;99072.25;2083883;28;20130;-48
2023/08/11 04:19:25;;;;;;;2.85;1.10;;;;;;;26.68;46.55;99069.75;2084308;28;20059;-47
2023/08/11 04:20:28;;;;;;;1.75;1.10;;;;;;;26.67;46.96;99071.66;2083721;28;20075;-48
2023/08/11 04:21:29;;;;;;;3.70;1.10;;;;;;;26.68;46.55;99072.50;2084404;28;20056;-52
2023/08/11 04:22:31;;;;;;;3.28;1.40;;;;;;;26.68;46.96;99076.03;2084802;28;20056;-48
2023/08/11 04:23:31;;;;;;;3.22;1.70;;;;;;;26.68;46.55;99077.94;2087028;28;20048;-48
2023/08/11 04:24:34;;;;;;;1.00;0.90;;;;;;;26.68;46.78;99075.22;2086647;28;20040;-49
2023/08/11 04:25:35;;;;;;;4.15;2.00;;;;;;;26.68;46.71;99070.59;2082782;28;20098;-48
2023/08/11 04:26:36;;;;;;;1.67;1.20;;;;;;;26.69;46.69;99082.28;2082862;28;20576;-49
2023/08/11 04:27:39;;;;;;;2.88;1.02;;;;;;;26.69;46.88;99076.84;2087530;28;20080;-47
2023/08/11 04:28:43;;;;;;;3.83;1.08;;;;;;;26.68;46.56;99072.50;2084923;28;20049;-48
2023/08/11 04:29:44;;;;;;;2.47;1.17;;;;;;;26.67;46.66;99070.84;2085370;28;20742;-47
2023/08/11 04:30:46;;;;;;;3.97;1.05;;;;;;;26.67;46.93;99070.84;2085152;28;20049;-47
2023/08/11 04:31:46;;;;;;;1.52;1.15;;;;;;;26.69;46.78;99080.41;2083898;28;20135;-47
2023/08/11 04:32:47;;;;;;;1.70;0.93;;;;;;;26.68;47.04;99069.75;2086708;28;20040;-47
2023/08/11 04:33:49;;;;;;;2.47;1.48;;;;;;;26.67;46.77;99073.56;2081967;28;20040;-47
2023/08/11 04:34:50;;;;;;;1.60;1.13;;;;;;;26.67;47.00;99074.38;2074944;28;20696;-48
2023/08/11 04:35:53;;;;;;;1.80;1.20;;;;;;;26.67;46.69;99076.28;2079060;28;20048;-50
2023/08/11 04:36:53;;;;;;;3.90;1.13;;;;;;;26.66;46.99;99078.19;2076443;28;20041;-47
2023/08/11 04:37:55;;;;;;;1.40;1.30;;;;;;;26.68;46.75;99076.03;2076296;28;20065;-47
2023/08/11 04:38:56;;;;;;;2.75;1.40;;;;;;;26.68;46.67;99075.22;2082641;28;20056;-48
2023/08/11 04:39:57;;;;;;;2.75;1.13;;;;;;;26.67;46.43;99077.09;2087685;28;20079;-47
2023/08/11 04:40:59;;;;;;;2.35;1.20;;;;;;;26.67;46.84;99073.56;2083471;28;20102;-48
2023/08/11 04:42:00;;;;;;;4.63;1.85;;;;;;;26.67;46.54;99074.38;2077046;28;21633;-48
2023/08/11 04:43:02;;;;;;;2.47;1.25;;;;;;;26.68;46.57;99075.22;2074996;28;20050;-51
2023/08/11 04:44:04;;;;;;;1.60;1.50;;;;;;;26.68;46.80;99076.03;2075671;28;20049;-48
2023/08/11 04:45:08;;;;;;;1.70;1.55;;;;;;;26.68;46.86;99076.03;2079242;28;20049;-48
2023/08/11 04:46:09;;;;;;;3.88;1.33;;;;;;;26.68;46.77;99086.09;2076559;28;20167;-46
2023/08/11 04:47:11;;;;;;;4.55;1.20;;;;;;;26.68;46.87;99078.75;2077988;28;20579;-47
2023/08/11 04:48:12;;;;;;;1.77;1.00;;;;;;;26.67;46.57;99084.44;2077266;28;20045;-49
2023/08/11 04:49:13;;;;;;;2.70;0.98;;;;;;;26.67;46.91;99081.72;2074996;28;20075;-47
2023/08/11 04:50:15;;;;;;;1.60;1.02;;;;;;;26.67;46.58;99079.00;2074482;28;20073;-47
2023/08/11 04:51:16;;;;;;;2.35;1.60;;;;;;;26.67;46.96;99085.28;2078831;28;20053;-49
2023/08/11 04:52:17;;;;;;;3.22;0.70;;;;;;;26.68;47.01;99086.09;2077220;28;20041;-49